sensor_id;sensor_type;location;lat;lon;timestamp;P1;durP1;ratioP1;P2;durP2;ratioP2
73557;SDS011;61829;53.286;10.434;2022-08-27T00:00:26;22.42;;;12.45;;
73557;SDS011;61829;53.286;10.434;2022-08-27T00:03:04;19.77;;;12.82;;
73557;SDS011;61829;53.286;10.434;2022-08-27T00:05:31;22.95;;;13.13;;
73557;SDS011;61829;53.286;10.434;2022-08-27T00:07:57;23.73;;;12.18;;
73557;SDS011;61829;53.286;10.434;2022-08-27T00:10:23;23.27;;;13.10;;
73557;SDS011;61829;53.286;10.434;2022-08-27T00:12:52;25.45;;;13.30;;
73557;SDS011;61829;53.286;10.434;2022-08-27T00:15:20;22.45;;;12.07;;
73557;SDS011;61829;53.286;10.434;2022-08-27T00:18:03;26.08;;;12.90;;
73557;SDS011;61829;53.286;10.434;2022-08-27T00:20:29;15.95;;;11.65;;
73557;SDS011;61829;53.286;10.434;2022-08-27T00:22:55;23.85;;;13.52;;
73557;SDS011;61829;53.286;10.434;2022-08-27T00:25:21;23.38;;;13.48;;
73557;SDS011;61829;53.286;10.434;2022-08-27T00:27:47;20.23;;;13.43;;
73557;SDS011;61829;53.286;10.434;2022-08-27T00:30:15;22.52;;;13.15;;
73557;SDS011;61829;53.286;10.434;2022-08-27T00:32:42;21.00;;;12.43;;
73557;SDS011;61829;53.286;10.434;2022-08-27T00:35:10;22.77;;;13.35;;
73557;SDS011;61829;53.286;10.434;2022-08-27T00:37:36;21.67;;;12.50;;
73557;SDS011;61829;53.286;10.434;2022-08-27T00:40:04;22.38;;;13.07;;
73557;SDS011;61829;53.286;10.434;2022-08-27T00:42:32;23.30;;;13.48;;
73557;SDS011;61829;53.286;10.434;2022-08-27T00:44:58;21.52;;;13.50;;
73557;SDS011;61829;53.286;10.434;2022-08-27T00:47:25;24.75;;;14.25;;
73557;SDS011;61829;53.286;10.434;2022-08-27T00:49:57;20.70;;;11.73;;
73557;SDS011;61829;53.286;10.434;2022-08-27T00:55:07;20.10;;;12.55;;
73557;SDS011;61829;53.286;10.434;2022-08-27T00:57:37;21.17;;;13.35;;
73557;SDS011;61829;53.286;10.434;2022-08-27T01:00:08;26.92;;;15.32;;
73557;SDS011;61829;53.286;10.434;2022-08-27T01:02:38;26.42;;;14.73;;
73557;SDS011;61829;53.286;10.434;2022-08-27T01:05:08;29.02;;;15.10;;
73557;SDS011;61829;53.286;10.434;2022-08-27T01:07:37;25.85;;;14.90;;
73557;SDS011;61829;53.286;10.434;2022-08-27T01:10:11;28.35;;;15.90;;
73557;SDS011;61829;53.286;10.434;2022-08-27T01:12:40;32.83;;;16.90;;
73557;SDS011;61829;53.286;10.434;2022-08-27T01:15:08;32.58;;;17.60;;
73557;SDS011;61829;53.286;10.434;2022-08-27T01:17:37;34.92;;;16.60;;
73557;SDS011;61829;53.286;10.434;2022-08-27T01:20:05;33.53;;;17.27;;
73557;SDS011;61829;53.286;10.434;2022-08-27T01:25:12;34.13;;;19.27;;
73557;SDS011;61829;53.286;10.434;2022-08-27T01:27:40;36.53;;;21.00;;
73557;SDS011;61829;53.286;10.434;2022-08-27T01:30:09;35.03;;;19.33;;
73557;SDS011;61829;53.286;10.434;2022-08-27T01:32:38;37.35;;;19.55;;
73557;SDS011;61829;53.286;10.434;2022-08-27T01:37:33;28.40;;;17.75;;
73557;SDS011;61829;53.286;10.434;2022-08-27T01:40:00;29.98;;;16.67;;
73557;SDS011;61829;53.286;10.434;2022-08-27T01:45:00;29.02;;;17.45;;
73557;SDS011;61829;53.286;10.434;2022-08-27T01:47:38;34.13;;;17.17;;
73557;SDS011;61829;53.286;10.434;2022-08-27T01:50:05;31.67;;;18.45;;
73557;SDS011;61829;53.286;10.434;2022-08-27T01:52:35;36.95;;;18.73;;
73557;SDS011;61829;53.286;10.434;2022-08-27T01:55:03;37.42;;;21.13;;
73557;SDS011;61829;53.286;10.434;2022-08-27T01:57:30;38.33;;;18.52;;
73557;SDS011;61829;53.286;10.434;2022-08-27T01:59:56;41.42;;;21.50;;
73557;SDS011;61829;53.286;10.434;2022-08-27T02:02:23;34.58;;;20.17;;
73557;SDS011;61829;53.286;10.434;2022-08-27T02:04:49;36.90;;;19.40;;
73557;SDS011;61829;53.286;10.434;2022-08-27T02:09:42;37.28;;;18.88;;
73557;SDS011;61829;53.286;10.434;2022-08-27T02:12:08;42.50;;;20.38;;
73557;SDS011;61829;53.286;10.434;2022-08-27T02:14:34;37.50;;;18.95;;
73557;SDS011;61829;53.286;10.434;2022-08-27T02:17:00;36.28;;;20.33;;
73557;SDS011;61829;53.286;10.434;2022-08-27T02:22:58;33.80;;;18.25;;
73557;SDS011;61829;53.286;10.434;2022-08-27T02:25:24;30.33;;;16.65;;
73557;SDS011;61829;53.286;10.434;2022-08-27T02:27:52;36.72;;;18.85;;
73557;SDS011;61829;53.286;10.434;2022-08-27T02:30:20;32.03;;;17.75;;
73557;SDS011;61829;53.286;10.434;2022-08-27T02:32:47;36.60;;;18.55;;
73557;SDS011;61829;53.286;10.434;2022-08-27T02:37:41;29.70;;;16.45;;
73557;SDS011;61829;53.286;10.434;2022-08-27T02:40:09;31.20;;;17.70;;
73557;SDS011;61829;53.286;10.434;2022-08-27T02:42:36;34.45;;;17.02;;
73557;SDS011;61829;53.286;10.434;2022-08-27T02:45:03;34.28;;;17.98;;
73557;SDS011;61829;53.286;10.434;2022-08-27T02:47:32;31.95;;;17.33;;
73557;SDS011;61829;53.286;10.434;2022-08-27T02:49:59;36.30;;;17.70;;
73557;SDS011;61829;53.286;10.434;2022-08-27T02:52:27;32.80;;;17.15;;
73557;SDS011;61829;53.286;10.434;2022-08-27T02:54:54;34.72;;;18.88;;
73557;SDS011;61829;53.286;10.434;2022-08-27T02:59:47;29.08;;;16.17;;
73557;SDS011;61829;53.286;10.434;2022-08-27T03:04:40;27.83;;;15.45;;
73557;SDS011;61829;53.286;10.434;2022-08-27T03:07:06;24.77;;;13.68;;
73557;SDS011;61829;53.286;10.434;2022-08-27T03:09:32;26.92;;;14.60;;
73557;SDS011;61829;53.286;10.434;2022-08-27T03:11:59;31.60;;;16.67;;
73557;SDS011;61829;53.286;10.434;2022-08-27T03:14:26;31.67;;;17.75;;
73557;SDS011;61829;53.286;10.434;2022-08-27T03:16:52;42.22;;;22.30;;
73557;SDS011;61829;53.286;10.434;2022-08-27T03:19:19;48.13;;;24.23;;
73557;SDS011;61829;53.286;10.434;2022-08-27T03:21:46;45.40;;;23.10;;
73557;SDS011;61829;53.286;10.434;2022-08-27T03:24:13;47.47;;;23.23;;
73557;SDS011;61829;53.286;10.434;2022-08-27T03:26:38;50.20;;;25.50;;
73557;SDS011;61829;53.286;10.434;2022-08-27T03:29:05;53.65;;;25.73;;
73557;SDS011;61829;53.286;10.434;2022-08-27T03:31:32;50.20;;;25.10;;
73557;SDS011;61829;53.286;10.434;2022-08-27T03:33:59;51.47;;;24.13;;
73557;SDS011;61829;53.286;10.434;2022-08-27T03:36:29;44.38;;;22.85;;
73557;SDS011;61829;53.286;10.434;2022-08-27T03:38:56;48.92;;;23.08;;
73557;SDS011;61829;53.286;10.434;2022-08-27T03:41:23;47.20;;;22.98;;
73557;SDS011;61829;53.286;10.434;2022-08-27T03:43:50;49.13;;;23.15;;
73557;SDS011;61829;53.286;10.434;2022-08-27T03:46:18;56.50;;;24.60;;
73557;SDS011;61829;53.286;10.434;2022-08-27T03:48:46;53.80;;;25.05;;
73557;SDS011;61829;53.286;10.434;2022-08-27T03:51:13;53.47;;;24.75;;
73557;SDS011;61829;53.286;10.434;2022-08-27T03:53:41;54.22;;;25.20;;
73557;SDS011;61829;53.286;10.434;2022-08-27T03:56:08;56.08;;;24.50;;
73557;SDS011;61829;53.286;10.434;2022-08-27T04:01:01;54.03;;;24.63;;
73557;SDS011;61829;53.286;10.434;2022-08-27T04:03:28;52.53;;;24.63;;
73557;SDS011;61829;53.286;10.434;2022-08-27T04:05:54;55.33;;;24.85;;
73557;SDS011;61829;53.286;10.434;2022-08-27T04:08:21;55.17;;;25.02;;
73557;SDS011;61829;53.286;10.434;2022-08-27T04:10:48;44.60;;;21.90;;
73557;SDS011;61829;53.286;10.434;2022-08-27T04:13:19;48.58;;;22.23;;
73557;SDS011;61829;53.286;10.434;2022-08-27T04:15:48;47.60;;;22.73;;
73557;SDS011;61829;53.286;10.434;2022-08-27T04:18:17;46.50;;;22.25;;
73557;SDS011;61829;53.286;10.434;2022-08-27T04:20:48;45.00;;;21.23;;
73557;SDS011;61829;53.286;10.434;2022-08-27T04:23:15;48.50;;;22.38;;
73557;SDS011;61829;53.286;10.434;2022-08-27T04:25:41;44.75;;;22.40;;
73557;SDS011;61829;53.286;10.434;2022-08-27T04:28:08;42.65;;;20.05;;
73557;SDS011;61829;53.286;10.434;2022-08-27T04:30:39;46.40;;;22.00;;
73557;SDS011;61829;53.286;10.434;2022-08-27T04:33:06;42.95;;;20.88;;
73557;SDS011;61829;53.286;10.434;2022-08-27T04:35:32;40.25;;;19.98;;
73557;SDS011;61829;53.286;10.434;2022-08-27T04:40:25;35.42;;;17.50;;
73557;SDS011;61829;53.286;10.434;2022-08-27T04:43:11;35.22;;;17.85;;
73557;SDS011;61829;53.286;10.434;2022-08-27T04:45:45;43.28;;;19.00;;
73557;SDS011;61829;53.286;10.434;2022-08-27T04:48:13;39.78;;;18.30;;
73557;SDS011;61829;53.286;10.434;2022-08-27T04:50:42;39.00;;;18.52;;
73557;SDS011;61829;53.286;10.434;2022-08-27T04:53:10;39.15;;;18.48;;
73557;SDS011;61829;53.286;10.434;2022-08-27T04:55:41;38.38;;;16.42;;
73557;SDS011;61829;53.286;10.434;2022-08-27T04:58:11;41.65;;;17.98;;
73557;SDS011;61829;53.286;10.434;2022-08-27T05:00:45;35.03;;;16.33;;
73557;SDS011;61829;53.286;10.434;2022-08-27T05:06:00;37.20;;;17.67;;
73557;SDS011;61829;53.286;10.434;2022-08-27T05:08:28;35.50;;;17.27;;
73557;SDS011;61829;53.286;10.434;2022-08-27T05:13:21;32.55;;;15.68;;
73557;SDS011;61829;53.286;10.434;2022-08-27T05:15:56;31.08;;;14.27;;
73557;SDS011;61829;53.286;10.434;2022-08-27T05:18:24;28.55;;;14.70;;
73557;SDS011;61829;53.286;10.434;2022-08-27T05:20:50;27.40;;;14.88;;
73557;SDS011;61829;53.286;10.434;2022-08-27T05:23:17;25.08;;;14.23;;
73557;SDS011;61829;53.286;10.434;2022-08-27T05:25:44;27.52;;;13.88;;
73557;SDS011;61829;53.286;10.434;2022-08-27T05:28:12;29.90;;;13.88;;
73557;SDS011;61829;53.286;10.434;2022-08-27T05:30:42;26.45;;;13.45;;
73557;SDS011;61829;53.286;10.434;2022-08-27T05:33:12;25.38;;;12.20;;
73557;SDS011;61829;53.286;10.434;2022-08-27T05:35:40;25.05;;;12.60;;
73557;SDS011;61829;53.286;10.434;2022-08-27T05:38:07;22.67;;;11.68;;
73557;SDS011;61829;53.286;10.434;2022-08-27T05:40:34;25.23;;;12.85;;
73557;SDS011;61829;53.286;10.434;2022-08-27T05:43:00;29.02;;;12.23;;
73557;SDS011;61829;53.286;10.434;2022-08-27T05:45:27;26.60;;;12.55;;
73557;SDS011;61829;53.286;10.434;2022-08-27T05:47:54;25.13;;;11.70;;
73557;SDS011;61829;53.286;10.434;2022-08-27T05:50:20;25.77;;;13.25;;
73557;SDS011;61829;53.286;10.434;2022-08-27T05:52:46;23.63;;;12.00;;
73557;SDS011;61829;53.286;10.434;2022-08-27T05:55:12;22.25;;;11.43;;
73557;SDS011;61829;53.286;10.434;2022-08-27T05:57:38;26.80;;;11.80;;
73557;SDS011;61829;53.286;10.434;2022-08-27T06:00:04;26.48;;;11.80;;
73557;SDS011;61829;53.286;10.434;2022-08-27T06:02:49;24.05;;;11.63;;
73557;SDS011;61829;53.286;10.434;2022-08-27T06:05:16;24.95;;;11.85;;
73557;SDS011;61829;53.286;10.434;2022-08-27T06:07:42;24.35;;;11.52;;
73557;SDS011;61829;53.286;10.434;2022-08-27T06:10:08;27.80;;;12.23;;
73557;SDS011;61829;53.286;10.434;2022-08-27T06:12:35;27.38;;;11.82;;
73557;SDS011;61829;53.286;10.434;2022-08-27T06:15:01;24.95;;;11.68;;
73557;SDS011;61829;53.286;10.434;2022-08-27T06:17:28;23.05;;;11.40;;
73557;SDS011;61829;53.286;10.434;2022-08-27T06:19:55;23.10;;;11.25;;
73557;SDS011;61829;53.286;10.434;2022-08-27T06:22:21;26.27;;;11.73;;
73557;SDS011;61829;53.286;10.434;2022-08-27T06:24:48;24.88;;;12.60;;
73557;SDS011;61829;53.286;10.434;2022-08-27T06:27:16;22.60;;;10.88;;
73557;SDS011;61829;53.286;10.434;2022-08-27T06:29:43;26.27;;;11.38;;
73557;SDS011;61829;53.286;10.434;2022-08-27T06:32:10;24.05;;;11.07;;
73557;SDS011;61829;53.286;10.434;2022-08-27T06:34:39;20.92;;;10.60;;
73557;SDS011;61829;53.286;10.434;2022-08-27T06:37:05;23.42;;;10.02;;
73557;SDS011;61829;53.286;10.434;2022-08-27T06:39:33;22.83;;;11.40;;
73557;SDS011;61829;53.286;10.434;2022-08-27T06:42:00;22.63;;;11.32;;
73557;SDS011;61829;53.286;10.434;2022-08-27T06:44:44;24.08;;;10.52;;
73557;SDS011;61829;53.286;10.434;2022-08-27T06:47:10;25.30;;;11.60;;
73557;SDS011;61829;53.286;10.434;2022-08-27T06:49:37;21.92;;;11.07;;
73557;SDS011;61829;53.286;10.434;2022-08-27T06:52:04;24.02;;;11.82;;
73557;SDS011;61829;53.286;10.434;2022-08-27T06:54:31;24.13;;;11.73;;
73557;SDS011;61829;53.286;10.434;2022-08-27T06:56:57;25.50;;;11.88;;
73557;SDS011;61829;53.286;10.434;2022-08-27T06:59:24;24.02;;;11.50;;
73557;SDS011;61829;53.286;10.434;2022-08-27T07:01:51;22.58;;;11.02;;
73557;SDS011;61829;53.286;10.434;2022-08-27T07:04:20;24.13;;;12.07;;
73557;SDS011;61829;53.286;10.434;2022-08-27T07:06:48;22.85;;;10.48;;
73557;SDS011;61829;53.286;10.434;2022-08-27T07:11:41;20.95;;;10.00;;
73557;SDS011;61829;53.286;10.434;2022-08-27T07:14:08;22.20;;;11.05;;
73557;SDS011;61829;53.286;10.434;2022-08-27T07:16:35;20.63;;;10.52;;
73557;SDS011;61829;53.286;10.434;2022-08-27T07:19:02;23.13;;;9.82;;
73557;SDS011;61829;53.286;10.434;2022-08-27T07:21:30;19.45;;;10.45;;
73557;SDS011;61829;53.286;10.434;2022-08-27T07:27:02;17.88;;;9.30;;
73557;SDS011;61829;53.286;10.434;2022-08-27T07:29:28;18.02;;;9.88;;
73557;SDS011;61829;53.286;10.434;2022-08-27T07:31:54;21.15;;;10.18;;
73557;SDS011;61829;53.286;10.434;2022-08-27T07:34:20;20.92;;;10.30;;
73557;SDS011;61829;53.286;10.434;2022-08-27T07:36:47;19.70;;;9.55;;
73557;SDS011;61829;53.286;10.434;2022-08-27T07:39:12;21.83;;;10.45;;
73557;SDS011;61829;53.286;10.434;2022-08-27T07:41:41;18.17;;;8.85;;
73557;SDS011;61829;53.286;10.434;2022-08-27T07:44:26;21.60;;;10.52;;
73557;SDS011;61829;53.286;10.434;2022-08-27T07:46:53;20.48;;;10.30;;
73557;SDS011;61829;53.286;10.434;2022-08-27T07:49:21;18.35;;;9.20;;
73557;SDS011;61829;53.286;10.434;2022-08-27T07:51:48;21.40;;;9.68;;
73557;SDS011;61829;53.286;10.434;2022-08-27T07:54:15;16.65;;;9.25;;
73557;SDS011;61829;53.286;10.434;2022-08-27T07:56:41;20.23;;;9.48;;
73557;SDS011;61829;53.286;10.434;2022-08-27T07:59:08;17.38;;;9.43;;
73557;SDS011;61829;53.286;10.434;2022-08-27T08:01:34;21.35;;;10.13;;
73557;SDS011;61829;53.286;10.434;2022-08-27T08:04:00;18.15;;;9.95;;
73557;SDS011;61829;53.286;10.434;2022-08-27T08:06:26;20.75;;;8.65;;
73557;SDS011;61829;53.286;10.434;2022-08-27T08:08:52;19.42;;;10.35;;
73557;SDS011;61829;53.286;10.434;2022-08-27T08:11:18;17.38;;;9.50;;
73557;SDS011;61829;53.286;10.434;2022-08-27T08:16:12;19.38;;;9.82;;
73557;SDS011;61829;53.286;10.434;2022-08-27T08:21:06;19.92;;;9.07;;
73557;SDS011;61829;53.286;10.434;2022-08-27T08:23:34;20.45;;;9.75;;
73557;SDS011;61829;53.286;10.434;2022-08-27T08:26:00;22.08;;;10.82;;
73557;SDS011;61829;53.286;10.434;2022-08-27T08:28:27;23.17;;;10.43;;
73557;SDS011;61829;53.286;10.434;2022-08-27T08:30:54;23.60;;;12.35;;
73557;SDS011;61829;53.286;10.434;2022-08-27T08:33:21;23.10;;;11.73;;
73557;SDS011;61829;53.286;10.434;2022-08-27T08:35:48;20.48;;;11.57;;
73557;SDS011;61829;53.286;10.434;2022-08-27T08:38:15;23.73;;;12.55;;
73557;SDS011;61829;53.286;10.434;2022-08-27T08:40:49;23.17;;;11.00;;
73557;SDS011;61829;53.286;10.434;2022-08-27T08:43:30;25.75;;;12.93;;
73557;SDS011;61829;53.286;10.434;2022-08-27T08:46:29;22.02;;;10.68;;
73557;SDS011;61829;53.286;10.434;2022-08-27T08:49:06;23.23;;;12.23;;
73557;SDS011;61829;53.286;10.434;2022-08-27T08:51:48;20.77;;;10.93;;
73557;SDS011;61829;53.286;10.434;2022-08-27T08:54:17;21.00;;;10.23;;
73557;SDS011;61829;53.286;10.434;2022-08-27T08:59:18;19.38;;;9.73;;
73557;SDS011;61829;53.286;10.434;2022-08-27T09:01:52;22.98;;;10.95;;
73557;SDS011;61829;53.286;10.434;2022-08-27T09:04:19;28.73;;;16.58;;
73557;SDS011;61829;53.286;10.434;2022-08-27T09:11:48;22.42;;;13.25;;
73557;SDS011;61829;53.286;10.434;2022-08-27T09:17:11;18.63;;;9.48;;
73557;SDS011;61829;53.286;10.434;2022-08-27T09:19:40;19.45;;;9.93;;
73557;SDS011;61829;53.286;10.434;2022-08-27T09:25:27;17.75;;;9.55;;
73557;SDS011;61829;53.286;10.434;2022-08-27T09:27:58;19.77;;;8.80;;
73557;SDS011;61829;53.286;10.434;2022-08-27T09:30:30;19.15;;;8.85;;
73557;SDS011;61829;53.286;10.434;2022-08-27T09:33:05;19.15;;;8.57;;
73557;SDS011;61829;53.286;10.434;2022-08-27T09:35:39;15.63;;;8.20;;
73557;SDS011;61829;53.286;10.434;2022-08-27T09:38:07;17.88;;;9.20;;
73557;SDS011;61829;53.286;10.434;2022-08-27T09:40:41;15.48;;;8.43;;
73557;SDS011;61829;53.286;10.434;2022-08-27T09:45:45;15.93;;;8.52;;
73557;SDS011;61829;53.286;10.434;2022-08-27T09:48:16;15.00;;;8.25;;
73557;SDS011;61829;53.286;10.434;2022-08-27T09:50:46;17.75;;;7.85;;
73557;SDS011;61829;53.286;10.434;2022-08-27T09:53:42;17.20;;;8.15;;
73557;SDS011;61829;53.286;10.434;2022-08-27T09:56:08;14.60;;;7.50;;
73557;SDS011;61829;53.286;10.434;2022-08-27T09:58:47;14.35;;;7.68;;
73557;SDS011;61829;53.286;10.434;2022-08-27T10:01:20;17.73;;;8.05;;
73557;SDS011;61829;53.286;10.434;2022-08-27T10:03:49;14.07;;;7.18;;
73557;SDS011;61829;53.286;10.434;2022-08-27T10:06:29;17.38;;;8.48;;
73557;SDS011;61829;53.286;10.434;2022-08-27T10:08:58;15.65;;;8.35;;
73557;SDS011;61829;53.286;10.434;2022-08-27T10:11:38;14.63;;;8.18;;
73557;SDS011;61829;53.286;10.434;2022-08-27T10:19:39;14.48;;;7.63;;
73557;SDS011;61829;53.286;10.434;2022-08-27T10:22:26;17.52;;;6.72;;
73557;SDS011;61829;53.286;10.434;2022-08-27T10:30:20;19.50;;;10.05;;
73557;SDS011;61829;53.286;10.434;2022-08-27T10:41:24;23.67;;;9.73;;
73557;SDS011;61829;53.286;10.434;2022-08-27T10:44:05;19.80;;;11.00;;
73557;SDS011;61829;53.286;10.434;2022-08-27T10:49:35;39.15;;;19.48;;
73557;SDS011;61829;53.286;10.434;2022-08-27T10:58:09;44.05;;;25.50;;
73557;SDS011;61829;53.286;10.434;2022-08-27T11:00:40;39.63;;;22.35;;
73557;SDS011;61829;53.286;10.434;2022-08-27T11:03:18;38.45;;;22.33;;
73557;SDS011;61829;53.286;10.434;2022-08-27T11:05:52;33.35;;;19.25;;
73557;SDS011;61829;53.286;10.434;2022-08-27T11:10:57;31.13;;;17.30;;
73557;SDS011;61829;53.286;10.434;2022-08-27T11:16:00;28.67;;;16.15;;
73557;SDS011;61829;53.286;10.434;2022-08-27T11:21:13;28.98;;;16.98;;
73557;SDS011;61829;53.286;10.434;2022-08-27T11:23:44;29.58;;;17.13;;
73557;SDS011;61829;53.286;10.434;2022-08-27T11:26:13;28.20;;;18.20;;
73557;SDS011;61829;53.286;10.434;2022-08-27T11:28:40;30.73;;;16.75;;
73557;SDS011;61829;53.286;10.434;2022-08-27T11:33:56;27.85;;;13.43;;
73557;SDS011;61829;53.286;10.434;2022-08-27T11:42:45;27.33;;;13.57;;
73557;SDS011;61829;53.286;10.434;2022-08-27T11:47:52;27.05;;;16.05;;
73557;SDS011;61829;53.286;10.434;2022-08-27T11:50:21;26.05;;;17.33;;
73557;SDS011;61829;53.286;10.434;2022-08-27T11:52:54;25.85;;;16.38;;
73557;SDS011;61829;53.286;10.434;2022-08-27T11:55:30;27.20;;;16.33;;
73557;SDS011;61829;53.286;10.434;2022-08-27T11:58:05;32.47;;;18.55;;
73557;SDS011;61829;53.286;10.434;2022-08-27T12:00:36;30.35;;;19.33;;
73557;SDS011;61829;53.286;10.434;2022-08-27T12:03:08;28.00;;;18.40;;
73557;SDS011;61829;53.286;10.434;2022-08-27T12:05:41;28.77;;;18.73;;
73557;SDS011;61829;53.286;10.434;2022-08-27T12:17:00;26.10;;;15.15;;
73557;SDS011;61829;53.286;10.434;2022-08-27T12:25:33;21.30;;;12.18;;
73557;SDS011;61829;53.286;10.434;2022-08-27T12:28:00;18.17;;;10.85;;
73557;SDS011;61829;53.286;10.434;2022-08-27T12:30:36;19.85;;;13.32;;
73557;SDS011;61829;53.286;10.434;2022-08-27T12:33:13;18.67;;;12.13;;
73557;SDS011;61829;53.286;10.434;2022-08-27T12:35:49;20.75;;;11.98;;
73557;SDS011;61829;53.286;10.434;2022-08-27T12:41:09;20.77;;;11.85;;
73557;SDS011;61829;53.286;10.434;2022-08-27T12:46:06;19.75;;;11.40;;
73557;SDS011;61829;53.286;10.434;2022-08-27T12:51:25;23.50;;;14.73;;
73557;SDS011;61829;53.286;10.434;2022-08-27T13:00:11;21.63;;;14.95;;
73557;SDS011;61829;53.286;10.434;2022-08-27T13:05:41;30.08;;;20.33;;
73557;SDS011;61829;53.286;10.434;2022-08-27T13:08:33;26.52;;;18.60;;
73557;SDS011;61829;53.286;10.434;2022-08-27T13:11:06;29.80;;;16.48;;
73557;SDS011;61829;53.286;10.434;2022-08-27T13:14:02;26.10;;;15.93;;
73557;SDS011;61829;53.286;10.434;2022-08-27T13:16:41;25.83;;;14.88;;
73557;SDS011;61829;53.286;10.434;2022-08-27T13:19:31;24.10;;;12.48;;
73557;SDS011;61829;53.286;10.434;2022-08-27T13:22:00;21.83;;;12.35;;
73557;SDS011;61829;53.286;10.434;2022-08-27T13:24:30;19.00;;;11.07;;
73557;SDS011;61829;53.286;10.434;2022-08-27T13:27:03;18.00;;;11.00;;
73557;SDS011;61829;53.286;10.434;2022-08-27T13:29:31;21.73;;;10.80;;
73557;SDS011;61829;53.286;10.434;2022-08-27T13:31:57;17.85;;;9.60;;
73557;SDS011;61829;53.286;10.434;2022-08-27T13:34:25;17.27;;;9.50;;
73557;SDS011;61829;53.286;10.434;2022-08-27T13:36:57;14.40;;;8.80;;
73557;SDS011;61829;53.286;10.434;2022-08-27T13:39:25;18.38;;;8.63;;
73557;SDS011;61829;53.286;10.434;2022-08-27T13:41:52;13.45;;;9.05;;
73557;SDS011;61829;53.286;10.434;2022-08-27T13:46:49;14.73;;;8.70;;
73557;SDS011;61829;53.286;10.434;2022-08-27T13:49:20;16.67;;;7.38;;
73557;SDS011;61829;53.286;10.434;2022-08-27T13:51:56;14.48;;;7.75;;
73557;SDS011;61829;53.286;10.434;2022-08-27T13:54:33;16.50;;;6.70;;
73557;SDS011;61829;53.286;10.434;2022-08-27T13:57:04;15.93;;;6.93;;
73557;SDS011;61829;53.286;10.434;2022-08-27T13:59:35;15.68;;;6.93;;
73557;SDS011;61829;53.286;10.434;2022-08-27T14:04:37;17.60;;;6.80;;
73557;SDS011;61829;53.286;10.434;2022-08-27T14:07:13;15.10;;;6.82;;
73557;SDS011;61829;53.286;10.434;2022-08-27T14:12:36;13.13;;;6.68;;
73557;SDS011;61829;53.286;10.434;2022-08-27T14:15:14;13.27;;;5.50;;
73557;SDS011;61829;53.286;10.434;2022-08-27T14:17:45;12.20;;;5.53;;
73557;SDS011;61829;53.286;10.434;2022-08-27T14:20:13;8.70;;;4.13;;
73557;SDS011;61829;53.286;10.434;2022-08-27T14:22:41;8.40;;;3.50;;
73557;SDS011;61829;53.286;10.434;2022-08-27T14:25:07;10.38;;;3.90;;
73557;SDS011;61829;53.286;10.434;2022-08-27T14:27:34;8.98;;;3.13;;
73557;SDS011;61829;53.286;10.434;2022-08-27T14:30:02;6.55;;;2.05;;
73557;SDS011;61829;53.286;10.434;2022-08-27T14:32:30;9.15;;;2.50;;
73557;SDS011;61829;53.286;10.434;2022-08-27T14:34:57;7.82;;;2.42;;
73557;SDS011;61829;53.286;10.434;2022-08-27T14:37:24;7.78;;;2.80;;
73557;SDS011;61829;53.286;10.434;2022-08-27T14:39:50;9.27;;;2.50;;
73557;SDS011;61829;53.286;10.434;2022-08-27T14:42:16;7.07;;;2.78;;
73557;SDS011;61829;53.286;10.434;2022-08-27T14:44:43;8.40;;;2.55;;
73557;SDS011;61829;53.286;10.434;2022-08-27T14:47:09;7.25;;;2.70;;
73557;SDS011;61829;53.286;10.434;2022-08-27T14:49:38;8.68;;;2.50;;
73557;SDS011;61829;53.286;10.434;2022-08-27T14:52:06;7.47;;;2.40;;
73557;SDS011;61829;53.286;10.434;2022-08-27T14:54:35;9.63;;;2.10;;
73557;SDS011;61829;53.286;10.434;2022-08-27T14:57:02;8.50;;;2.28;;
73557;SDS011;61829;53.286;10.434;2022-08-27T14:59:33;12.02;;;2.78;;
73557;SDS011;61829;53.286;10.434;2022-08-27T15:02:01;7.55;;;2.28;;
73557;SDS011;61829;53.286;10.434;2022-08-27T15:04:30;7.47;;;2.20;;
73557;SDS011;61829;53.286;10.434;2022-08-27T15:06:57;8.43;;;2.05;;
73557;SDS011;61829;53.286;10.434;2022-08-27T15:09:25;8.05;;;2.30;;
73557;SDS011;61829;53.286;10.434;2022-08-27T15:11:52;10.00;;;2.40;;
73557;SDS011;61829;53.286;10.434;2022-08-27T15:14:23;8.43;;;2.38;;
73557;SDS011;61829;53.286;10.434;2022-08-27T15:16:52;8.88;;;2.35;;
73557;SDS011;61829;53.286;10.434;2022-08-27T15:19:19;8.40;;;2.47;;
73557;SDS011;61829;53.286;10.434;2022-08-27T15:21:47;6.65;;;2.25;;
73557;SDS011;61829;53.286;10.434;2022-08-27T15:24:18;6.90;;;2.45;;
73557;SDS011;61829;53.286;10.434;2022-08-27T15:26:49;6.60;;;2.10;;
73557;SDS011;61829;53.286;10.434;2022-08-27T15:29:22;8.20;;;2.50;;
73557;SDS011;61829;53.286;10.434;2022-08-27T15:31:49;12.18;;;3.15;;
73557;SDS011;61829;53.286;10.434;2022-08-27T15:34:15;12.10;;;2.30;;
73557;SDS011;61829;53.286;10.434;2022-08-27T15:36:42;9.13;;;2.22;;
73557;SDS011;61829;53.286;10.434;2022-08-27T15:41:35;8.07;;;2.50;;
73557;SDS011;61829;53.286;10.434;2022-08-27T15:44:02;8.18;;;2.10;;
73557;SDS011;61829;53.286;10.434;2022-08-27T15:46:29;7.47;;;2.38;;
73557;SDS011;61829;53.286;10.434;2022-08-27T15:48:54;8.07;;;2.00;;
73557;SDS011;61829;53.286;10.434;2022-08-27T15:51:29;9.85;;;2.60;;
73557;SDS011;61829;53.286;10.434;2022-08-27T15:53:58;7.80;;;1.90;;
73557;SDS011;61829;53.286;10.434;2022-08-27T15:56:25;7.95;;;2.28;;
73557;SDS011;61829;53.286;10.434;2022-08-27T15:58:51;7.28;;;2.25;;
73557;SDS011;61829;53.286;10.434;2022-08-27T16:01:21;7.30;;;2.20;;
73557;SDS011;61829;53.286;10.434;2022-08-27T16:09:26;8.32;;;2.10;;
73557;SDS011;61829;53.286;10.434;2022-08-27T16:11:53;13.57;;;2.20;;
73557;SDS011;61829;53.286;10.434;2022-08-27T16:14:19;9.25;;;2.03;;
73557;SDS011;61829;53.286;10.434;2022-08-27T16:16:45;10.93;;;2.42;;
73557;SDS011;61829;53.286;10.434;2022-08-27T16:19:11;9.82;;;2.10;;
73557;SDS011;61829;53.286;10.434;2022-08-27T16:21:38;8.55;;;2.15;;
73557;SDS011;61829;53.286;10.434;2022-08-27T16:24:05;10.98;;;2.00;;
73557;SDS011;61829;53.286;10.434;2022-08-27T16:26:34;8.38;;;2.30;;
73557;SDS011;61829;53.286;10.434;2022-08-27T16:29:01;7.05;;;2.05;;
73557;SDS011;61829;53.286;10.434;2022-08-27T16:34:12;10.70;;;2.28;;
73557;SDS011;61829;53.286;10.434;2022-08-27T16:36:41;6.25;;;1.67;;
73557;SDS011;61829;53.286;10.434;2022-08-27T16:39:07;6.10;;;1.70;;
73557;SDS011;61829;53.286;10.434;2022-08-27T16:41:33;7.88;;;1.95;;
73557;SDS011;61829;53.286;10.434;2022-08-27T16:43:59;6.82;;;1.70;;
73557;SDS011;61829;53.286;10.434;2022-08-27T16:46:25;6.53;;;1.40;;
73557;SDS011;61829;53.286;10.434;2022-08-27T16:48:51;5.93;;;1.63;;
73557;SDS011;61829;53.286;10.434;2022-08-27T16:51:36;7.68;;;1.40;;
73557;SDS011;61829;53.286;10.434;2022-08-27T16:54:03;10.32;;;1.80;;
73557;SDS011;61829;53.286;10.434;2022-08-27T16:56:31;6.40;;;1.85;;
73557;SDS011;61829;53.286;10.434;2022-08-27T16:58:57;9.80;;;1.83;;
73557;SDS011;61829;53.286;10.434;2022-08-27T17:01:23;8.05;;;1.75;;
73557;SDS011;61829;53.286;10.434;2022-08-27T17:03:51;5.55;;;1.50;;
73557;SDS011;61829;53.286;10.434;2022-08-27T17:06:19;8.10;;;1.65;;